Time;durP1;ratioP1;P1;durP2;ratioP2;P2;SDS_P1;SDS_P2;PMS_P1;PMS_P2;Temp;Humidity;BMP_temperature;BMP_pressure;BME280_temperature;BME280_humidity;BME280_pressure;Samples;Min_cycle;Max_cycle;Signal;HPM_P1;HPM_P2
2023/05/09 00:01:46;;;;;;;;;;;;;;;17.40;100.00;-18495.41;4975324;28;19922;-81
2023/05/09 00:04:11;;;;;;;;;;;;;;;17.24;100.00;-18491.31;4979763;28;19977;-81
2023/05/09 00:06:36;;;;;;;;;;;;;;;17.30;100.00;-18492.97;4973520;28;19936;-80
2023/05/09 00:09:03;;;;;;;;;;;;;;;17.26;100.00;-18491.72;4972928;28;19925;-80
2023/05/09 00:11:29;;;;;;;;;;;;;;;17.30;100.00;-18492.81;4973723;28;19965;-80
2023/05/09 00:13:54;;;;;;;;;;;;;;;17.31;100.00;-18493.25;4975026;28;20353;-80
2023/05/09 00:16:22;;;;;;;;;;;;;;;17.37;100.00;-18494.75;4974430;28;19922;-81
2023/05/09 00:18:48;;;;;;;;;;;;;;;17.30;100.00;-18492.97;4971042;28;20441;-80
2023/05/09 00:21:13;;;;;;;;;;;;;;;17.04;100.00;-18485.88;4972298;28;19922;-81
2023/05/09 00:23:38;;;;;;;;;;;;;;;16.89;100.00;-18482.03;4971400;28;20013;-80
2023/05/09 00:26:04;;;;;;;;;;;;;;;16.71;100.00;-18477.13;4974741;28;20356;-80
2023/05/09 00:28:29;;;;;;;;;;;;;;;16.74;100.00;-18477.81;4974262;28;19914;-80
2023/05/09 00:30:55;;;;;;;;;;;;;;;16.75;100.00;-18478.06;4975005;28;19936;-80
2023/05/09 00:33:20;;;;;;;;;;;;;;;16.90;100.00;-18482.31;4972477;28;20352;-80
2023/05/09 00:35:46;;;;;;;;;;;;;;;16.98;100.00;-18484.22;4971958;28;19933;-80
2023/05/09 00:38:11;;;;;;;;;;;;;;;16.94;100.00;-18483.28;4971137;28;19977;-80
2023/05/09 00:40:37;;;;;;;;;;;;;;;16.86;100.00;-18481.22;4970724;28;19974;-80
2023/05/09 00:43:03;;;;;;;;;;;;;;;17.01;100.00;-18485.03;4970411;28;19929;-80
2023/05/09 00:45:29;;;;;;;;;;;;;;;17.03;100.00;-18485.72;4970921;28;19957;-80
2023/05/09 00:47:54;;;;;;;;;;;;;;;17.08;100.00;-18486.97;4970787;28;19968;-79
2023/05/09 00:50:19;;;;;;;;;;;;;;;17.08;100.00;-18486.97;4970341;28;19977;-80
2023/05/09 00:52:45;;;;;;;;;;;;;;;16.89;100.00;-18482.03;4969891;28;19926;-80
2023/05/09 00:55:10;;;;;;;;;;;;;;;16.78;100.00;-18478.91;4970803;28;20012;-80
2023/05/09 00:57:36;;;;;;;;;;;;;;;16.79;100.00;-18479.16;4968521;28;20304;-81
2023/05/09 01:00:03;;;;;;;;;;;;;;;16.73;100.00;-18477.66;4969396;28;20019;-80
2023/05/09 01:02:29;;;;;;;;;;;;;;;16.79;100.00;-18479.31;4969847;28;19925;-80
2023/05/09 01:04:54;;;;;;;;;;;;;;;16.66;100.00;-18475.88;4968162;28;19918;-80
2023/05/09 01:07:38;;;;;;;;;;;;;;;16.78;100.00;-18479.03;4971049;28;19941;-80
2023/05/09 01:10:13;;;;;;;;;;;;;;;16.89;100.00;-18481.91;4962666;28;19980;-80
2023/05/09 01:12:41;;;;;;;;;;;;;;;16.60;100.00;-18474.13;4969027;28;19925;-80
2023/05/09 01:15:24;;;;;;;;;;;;;;;16.59;100.00;-18473.97;4969781;28;20369;-81
2023/05/09 01:17:57;;;;;;;;;;;;;;;16.60;100.00;-18474.25;4968571;28;19926;-80
2023/05/09 01:20:22;;;;;;;;;;;;;;;16.60;100.00;-18474.13;4967634;28;20775;-79
2023/05/09 01:22:54;;;;;;;;;;;;;;;16.70;100.00;-18476.97;4968277;28;19929;-79
2023/05/09 01:25:38;;;;;;;;;;;;;;;16.77;100.00;-18478.63;4971192;28;19925;-80
2023/05/09 01:28:03;;;;;;;;;;;;;;;16.89;100.00;-18481.91;4966239;28;20013;-81
2023/05/09 01:30:29;;;;;;;;;;;;;;;16.81;100.00;-18479.72;4969645;28;20012;-80
2023/05/09 01:32:58;;;;;;;;;;;;;;;16.75;100.00;-18478.06;4969806;28;21312;-80
2023/05/09 01:35:25;;;;;;;;;;;;;;;16.93;100.00;-18483.00;4968393;28;20012;-81
2023/05/09 01:37:50;;;;;;;;;;;;;;;16.84;100.00;-18480.69;4970235;28;20333;-80
2023/05/09 01:40:17;;;;;;;;;;;;;;;16.68;100.00;-18476.28;4970846;28;19921;-81
2023/05/09 01:42:45;;;;;;;;;;;;;;;16.69;100.00;-18476.56;4971005;28;20278;-80
2023/05/09 01:45:12;;;;;;;;;;;;;;;16.75;100.00;-18478.06;4969594;28;19918;-80
2023/05/09 01:47:38;;;;;;;;;;;;;;;16.80;100.00;-18479.59;4984489;28;20404;-81
2023/05/09 01:50:04;;;;;;;;;;;;;;;16.79;100.00;-18479.31;4970553;28;19918;-80
2023/05/09 01:52:30;;;;;;;;;;;;;;;16.81;100.00;-18479.72;4967995;28;19918;-81
2023/05/09 01:54:56;;;;;;;;;;;;;;;16.65;100.00;-18475.47;4969635;28;19921;-80
2023/05/09 01:57:22;;;;;;;;;;;;;;;16.59;100.00;-18473.84;4972004;28;20381;-80
2023/05/09 01:59:48;;;;;;;;;;;;;;;16.72;100.00;-18477.41;4968657;28;19922;-80
2023/05/09 02:02:13;;;;;;;;;;;;;;;16.55;100.00;-18472.88;4970586;28;19918;-80
2023/05/09 02:04:40;;;;;;;;;;;;;;;16.27;100.00;-18465.22;4967271;28;20053;-80
2023/05/09 02:07:06;;;;;;;;;;;;;;;16.42;100.00;-18469.34;4970090;28;19972;-79
2023/05/09 02:09:32;;;;;;;;;;;;;;;16.44;100.00;-18470.00;4968422;28;19922;-80
2023/05/09 02:11:57;;;;;;;;;;;;;;;16.26;100.00;-18465.09;4958318;28;19918;-80
2023/05/09 02:14:22;;;;;;;;;;;;;;;16.30;100.00;-18466.19;4969178;28;20274;-80
2023/05/09 02:16:48;;;;;;;;;;;;;;;16.45;100.00;-18470.16;4969835;28;19953;-79
2023/05/09 02:19:13;;;;;;;;;;;;;;;16.23;100.00;-18464.28;4969026;28;19944;-80
2023/05/09 02:21:40;;;;;;;;;;;;;;;16.24;100.00;-18464.56;4968690;28;19925;-80
2023/05/09 02:24:05;;;;;;;;;;;;;;;16.29;100.00;-18465.78;4969087;28;19926;-80
2023/05/09 02:26:31;;;;;;;;;;;;;;;16.14;100.00;-18461.94;4969285;28;19965;-80
2023/05/09 02:28:56;;;;;;;;;;;;;;;16.16;100.00;-18462.50;4969549;28;19984;-80
2023/05/09 02:31:24;;;;;;;;;;;;;;;16.09;100.00;-18460.59;4969473;28;19961;-80
2023/05/09 02:33:51;;;;;;;;;;;;;;;16.15;100.00;-18462.09;4983401;28;19918;-80
2023/05/09 02:36:17;;;;;;;;;;;;;;;16.06;100.00;-18459.75;4968981;28;19953;-79
2023/05/09 02:38:43;;;;;;;;;;;;;;;16.14;100.00;-18461.81;4965301;28;19929;-79
2023/05/09 02:41:12;;;;;;;;;;;;;;;16.06;100.00;-18459.75;4974358;28;19918;-80
2023/05/09 02:43:37;;;;;;;;;;;;;;;16.02;100.00;-18458.66;4968226;28;19922;-79
2023/05/09 02:46:02;;;;;;;;;;;;;;;16.00;100.00;-18458.25;4968877;28;19917;-80
2023/05/09 02:48:27;;;;;;;;;;;;;;;16.05;100.00;-18459.34;4965511;28;19950;-79
2023/05/09 02:50:53;;;;;;;;;;;;;;;16.06;100.00;-18459.75;4967629;28;20469;-81
2023/05/09 02:53:18;;;;;;;;;;;;;;;16.02;100.00;-18458.81;4972146;28;19918;-81
2023/05/09 02:55:43;;;;;;;;;;;;;;;16.07;100.00;-18459.91;4969102;28;19925;-81
2023/05/09 02:58:08;;;;;;;;;;;;;;;16.08;100.00;-18460.19;4969390;28;19922;-81
2023/05/09 03:00:33;;;;;;;;;;;;;;;16.03;100.00;-18458.94;4968073;28;19918;-80
2023/05/09 03:02:59;;;;;;;;;;;;;;;15.99;100.00;-18458.00;4970643;28;20003;-80
2023/05/09 03:05:24;;;;;;;;;;;;;;;15.96;100.00;-18457.03;4969842;28;19926;-81
2023/05/09 03:07:50;;;;;;;;;;;;;;;15.91;100.00;-18455.81;4968338;28;19918;-80
2023/05/09 03:10:15;;;;;;;;;;;;;;;15.84;100.00;-18453.75;4969017;28;19922;-81
2023/05/09 03:12:42;;;;;;;;;;;;;;;15.87;100.00;-18454.56;4970010;28;19922;-81
2023/05/09 03:15:07;;;;;;;;;;;;;;;15.85;100.00;-18454.16;4969290;28;19969;-79
2023/05/09 03:17:33;;;;;;;;;;;;;;;15.84;100.00;-18453.75;4965594;28;19922;-80
2023/05/09 03:19:58;;;;;;;;;;;;;;;15.91;100.00;-18455.81;4970417;28;19925;-81
2023/05/09 03:22:23;;;;;;;;;;;;;;;15.86;100.00;-18454.44;4971813;28;19924;-80
2023/05/09 03:24:49;;;;;;;;;;;;;;;15.97;100.00;-18457.44;4972249;28;19926;-80
2023/05/09 03:27:14;;;;;;;;;;;;;;;15.97;100.00;-18457.44;4977029;28;19969;-80
2023/05/09 03:29:39;;;;;;;;;;;;;;;15.86;100.00;-18454.44;4975915;28;20008;-81
2023/05/09 03:32:05;;;;;;;;;;;;;;;15.88;100.00;-18454.84;5009265;28;19933;-81
2023/05/09 03:34:30;;;;;;;;;;;;;;;15.85;100.00;-18454.16;4977888;28;19918;-81
2023/05/09 03:36:55;;;;;;;;;;;;;;;15.95;100.00;-18456.91;4976647;28;19937;-81
2023/05/09 03:39:20;;;;;;;;;;;;;;;15.94;100.00;-18456.47;4977832;28;19922;-80
2023/05/09 03:41:46;;;;;;;;;;;;;;;15.99;100.00;-18458.00;4975416;28;19918;-81
2023/05/09 03:44:11;;;;;;;;;;;;;;;16.04;100.00;-18459.09;4977417;28;19918;-80
2023/05/09 03:46:36;;;;;;;;;;;;;;;16.08;100.00;-18460.31;4976708;28;19957;-81
2023/05/09 03:49:03;;;;;;;;;;;;;;;16.07;100.00;-18460.03;4979310;28;19922;-81
2023/05/09 03:51:28;;;;;;;;;;;;;;;16.13;100.00;-18461.69;4979600;28;19918;-81
2023/05/09 03:53:53;;;;;;;;;;;;;;;16.12;100.00;-18461.28;4981253;28;19952;-81
2023/05/09 03:56:19;;;;;;;;;;;;;;;16.10;100.00;-18460.72;4982596;28;19918;-80
2023/05/09 03:58:45;;;;;;;;;;;;;;;16.13;100.00;-18461.53;4976666;28;20673;-80
2023/05/09 04:01:10;;;;;;;;;;;;;;;16.12;100.00;-18461.28;4977186;28;19917;-80
2023/05/09 04:03:36;;;;;;;;;;;;;;;16.00;100.00;-18458.25;4979637;28;19917;-80
2023/05/09 04:06:01;;;;;;;;;;;;;;;16.03;100.00;-18458.94;4976639;28;20013;-81
2023/05/09 04:08:27;;;;;;;;;;;;;;;16.05;100.00;-18459.50;4977821;28;19965;-81
2023/05/09 04:10:52;;;;;;;;;;;;;;;16.10;100.00;-18460.72;4978988;28;19922;-81
2023/05/09 04:13:17;;;;;;;;;;;;;;;16.05;100.00;-18459.34;4980463;28;19995;-81
2023/05/09 04:15:42;;;;;;;;;;;;;;;16.29;100.00;-18465.91;4977948;28;19922;-80
2023/05/09 04:18:08;;;;;;;;;;;;;;;16.32;100.00;-18466.75;4978701;28;19937;-80
2023/05/09 04:20:33;;;;;;;;;;;;;;;16.33;100.00;-18466.88;4980635;28;19932;-81
2023/05/09 04:22:58;;;;;;;;;;;;;;;16.33;100.00;-18467.00;4977941;28;19964;-81
2023/05/09 04:25:23;;;;;;;;;;;;;;;16.30;100.00;-18466.19;4978662;28;19941;-81
2023/05/09 04:27:49;;;;;;;;;;;;;;;16.26;100.00;-18465.09;4976112;28;20348;-81
2023/05/09 04:30:14;;;;;;;;;;;;;;;16.45;100.00;-18470.28;4977492;28;20408;-80
2023/05/09 04:32:44;;;;;;;;;;;;;;;16.37;100.00;-18468.09;4976589;28;19925;-79
2023/05/09 04:35:09;;;;;;;;;;;;;;;16.35;100.00;-18467.41;4975295;28;19937;-80
2023/05/09 04:37:34;;;;;;;;;;;;;;;16.41;100.00;-18469.19;4974270;28;19926;-80
2023/05/09 04:40:00;;;;;;;;;;;;;;;16.52;100.00;-18471.94;4973653;28;19918;-81
2023/05/09 04:42:25;;;;;;;;;;;;;;;16.59;100.00;-18473.84;4974535;28;20518;-80
2023/05/09 04:44:51;;;;;;;;;;;;;;;16.77;100.00;-18478.63;4975166;28;20334;-80
2023/05/09 04:47:16;;;;;;;;;;;;;;;16.42;100.00;-18469.34;4976673;28;20373;-79
2023/05/09 04:49:41;;;;;;;;;;;;;;;16.48;100.00;-18470.97;4973029;28;20087;-81
2023/05/09 04:52:07;;;;;;;;;;;;;;;16.49;100.00;-18471.09;4975644;28;19917;-80
2023/05/09 04:54:32;;;;;;;;;;;;;;;16.37;100.00;-18468.09;4975397;28;19914;-80
2023/05/09 04:56:57;;;;;;;;;;;;;;;16.22;100.00;-18464.00;4975681;28;20309;-81
2023/05/09 04:59:23;;;;;;;;;;;;;;;16.26;100.00;-18465.09;4977523;28;20589;-80
2023/05/09 05:01:48;;;;;;;;;;;;;;;16.21;100.00;-18463.72;4974572;28;20397;-81
2023/05/09 05:04:13;;;;;;;;;;;;;;;16.25;100.00;-18464.81;4978641;28;19996;-81
2023/05/09 05:06:38;;;;;;;;;;;;;;;16.32;100.00;-18466.75;4973021;28;20304;-79
2023/05/09 05:09:04;;;;;;;;;;;;;;;16.35;100.00;-18467.56;4974142;28;20267;-81
2023/05/09 05:11:29;;;;;;;;;;;;;;;16.39;100.00;-18468.66;4976480;28;19996;-81
2023/05/09 05:13:55;;;;;;;;;;;;;;;16.55;100.00;-18472.75;4972569;28;19926;-80
2023/05/09 05:16:20;;;;;;;;;;;;;;;16.47;100.00;-18470.84;4971635;28;19914;-80
2023/05/09 05:18:45;;;;;;;;;;;;;;;16.59;100.00;-18473.97;4969206;28;19957;-81
2023/05/09 05:21:10;;;;;;;;;;;;;;;16.57;100.00;-18473.44;4972299;28;20393;-78
2023/05/09 05:23:36;;;;;;;;;;;;;;;16.53;100.00;-18472.19;4970091;28;20472;-78
2023/05/09 05:26:01;;;;;;;;;;;;;;;16.55;100.00;-18472.88;4964770;28;20321;-79
2023/05/09 05:28:26;;;;;;;;;;;;;;;16.50;100.00;-18471.38;4985565;28;19921;-80
2023/05/09 05:30:51;;;;;;;;;;;;;;;16.67;100.00;-18476.16;4982706;28;19922;-80
2023/05/09 05:33:16;;;;;;;;;;;;;;;16.61;100.00;-18474.38;4973985;28;19968;-80
2023/05/09 05:35:42;;;;;;;;;;;;;;;16.69;100.00;-18476.72;4971431;28;19918;-80
2023/05/09 05:38:07;;;;;;;;;;;;;;;16.82;100.00;-18480.00;4971664;28;19978;-80
2023/05/09 05:40:32;;;;;;;;;;;;;;;16.73;100.00;-18477.66;4971079;28;19922;-80
2023/05/09 05:42:57;;;;;;;;;;;;;;;16.87;100.00;-18481.50;4972841;28;19952;-80
2023/05/09 05:45:23;;;;;;;;;;;;;;;16.77;100.00;-18478.75;4971069;28;20305;-80
2023/05/09 05:47:48;;;;;;;;;;;;;;;16.66;100.00;-18475.75;4972413;28;19922;-80
2023/05/09 05:50:13;;;;;;;;;;;;;;;16.69;100.00;-18476.56;4972328;28;19952;-80
2023/05/09 05:52:39;;;;;;;;;;;;;;;16.64;100.00;-18475.22;4970882;28;20035;-79
2023/05/09 05:55:04;;;;;;;;;;;;;;;16.56;100.00;-18473.16;4971337;28;19992;-80
2023/05/09 05:57:29;;;;;;;;;;;;;;;16.65;100.00;-18475.63;4971691;28;19985;-80
2023/05/09 05:59:55;;;;;;;;;;;;;;;16.75;100.00;-18478.22;4985108;28;19922;-80
2023/05/09 06:02:20;;;;;;;;;;;;;;;16.67;100.00;-18476.03;4974327;28;20357;-79
2023/05/09 06:04:45;;;;;;;;;;;;;;;16.75;100.00;-18478.06;4983069;28;19926;-79
2023/05/09 06:07:11;;;;;;;;;;;;;;;16.77;100.00;-18478.63;4985672;28;19918;-79
2023/05/09 06:09:37;;;;;;;;;;;;;;;16.81;100.00;-18479.84;4970174;28;20016;-79
2023/05/09 06:12:02;;;;;;;;;;;;;;;16.80;100.00;-18479.59;4969201;28;20009;-79
2023/05/09 06:14:27;;;;;;;;;;;;;;;16.95;100.00;-18483.41;4970842;28;19918;-79
2023/05/09 06:16:52;;;;;;;;;;;;;;;16.72;100.00;-18477.25;4971013;28;19918;-80
2023/05/09 06:19:18;;;;;;;;;;;;;;;16.87;100.00;-18481.34;4965105;28;19926;-79
2023/05/09 06:21:43;;;;;;;;;;;;;;;16.90;100.00;-18482.31;4967453;28;21238;-78
2023/05/09 06:24:08;;;;;;;;;;;;;;;16.99;100.00;-18484.50;4970126;28;19925;-79
2023/05/09 06:26:33;;;;;;;;;;;;;;;17.08;100.00;-18486.97;4969909;28;19918;-78
2023/05/09 06:28:59;;;;;;;;;;;;;;;17.39;100.00;-18495.16;4968815;28;19928;-79
2023/05/09 06:31:25;;;;;;;;;;;;;;;17.37;100.00;-18494.88;4971252;28;19918;-79
2023/05/09 06:33:50;;;;;;;;;;;;;;;17.32;100.00;-18493.38;4986139;28;20313;-79
2023/05/09 06:36:15;;;;;;;;;;;;;;;17.50;100.00;-18498.28;4971375;28;19975;-79
2023/05/09 06:38:40;;;;;;;;;;;;;;;17.58;100.00;-18500.47;4975876;28;19926;-79
2023/05/09 06:41:05;;;;;;;;;;;;;;;17.57;100.00;-18500.19;4970958;28;20282;-79
2023/05/09 06:43:31;;;;;;;;;;;;;;;17.40;100.00;-18495.56;4970685;28;19918;-78
2023/05/09 06:45:56;;;;;;;;;;;;;;;17.43;100.00;-18496.25;4971168;28;19922;-79
2023/05/09 06:48:22;;;;;;;;;;;;;;;17.39;100.00;-18495.16;4967560;28;19929;-80
2023/05/09 06:50:48;;;;;;;;;;;;;;;17.50;100.00;-18498.16;4973206;28;19926;-79
2023/05/09 06:53:14;;;;;;;;;;;;;;;17.31;100.00;-18493.25;4972573;28;19940;-79
2023/05/09 06:55:39;;;;;;;;;;;;;;;17.29;100.00;-18492.69;4971198;28;20421;-79
2023/05/09 06:58:04;;;;;;;;;;;;;;;17.30;100.00;-18492.97;4972984;28;19926;-79
2023/05/09 07:00:29;;;;;;;;;;;;;;;17.29;100.00;-18492.56;4987331;28;20398;-79
2023/05/09 07:02:55;;;;;;;;;;;;;;;17.13;100.00;-18488.31;4972205;28;19925;-79
2023/05/09 07:05:20;;;;;;;;;;;;;;;17.18;100.00;-18489.56;4975505;28;20386;-79
2023/05/09 07:07:45;;;;;;;;;;;;;;;17.27;100.00;-18492.16;4988362;28;19949;-79
2023/05/09 07:10:11;;;;;;;;;;;;;;;17.40;100.00;-18495.41;4973444;28;19951;-79
2023/05/09 07:12:36;;;;;;;;;;;;;;;17.73;100.00;-18504.44;4969647;28;19918;-79
2023/05/09 07:15:01;;;;;;;;;;;;;;;17.86;100.00;-18507.84;4971568;28;19922;-79
2023/05/09 07:17:28;;;;;;;;;;;;;;;17.44;100.00;-18496.50;4968784;28;19925;-79
2023/05/09 07:19:54;;;;;;;;;;;;;;;17.27;100.00;-18492.16;4966929;28;19918;-80
2023/05/09 07:22:20;;;;;;;;;;;;;;;17.32;100.00;-18493.50;4970795;28;19925;-79
2023/05/09 07:24:45;;;;;;;;;;;;;;;17.14;100.00;-18488.59;5001754;28;19926;-79
2023/05/09 07:27:10;;;;;;;;;;;;;;;17.09;100.00;-18487.22;4971644;28;19922;-79
2023/05/09 07:29:35;;;;;;;;;;;;;;;17.12;100.00;-18488.19;4970485;28;19924;-80
2023/05/09 07:32:01;;;;;;;;;;;;;;;17.28;100.00;-18492.41;4971176;28;19918;-79
2023/05/09 07:34:26;;;;;;;;;;;;;;;17.30;100.00;-18492.81;4970807;28;19922;-79
2023/05/09 07:36:51;;;;;;;;;;;;;;;17.46;100.00;-18497.06;4968685;28;19941;-79
2023/05/09 07:39:16;;;;;;;;;;;;;;;17.49;100.00;-18498.03;4970111;28;19986;-79
2023/05/09 07:41:42;;;;;;;;;;;;;;;17.41;100.00;-18495.69;4968557;28;20311;-78
2023/05/09 07:44:08;;;;;;;;;;;;;;;17.61;100.00;-18501.16;4971627;28;19914;-79
2023/05/09 07:46:34;;;;;;;;;;;;;;;17.61;100.00;-18501.16;4971113;28;20309;-79
2023/05/09 07:48:59;;;;;;;;;;;;;;;17.74;100.00;-18504.56;4968951;28;19918;-79
2023/05/09 07:51:24;;;;;;;;;;;;;;;17.76;100.00;-18505.25;4971747;28;19924;-79
2023/05/09 07:53:49;;;;;;;;;;;;;;;17.71;100.00;-18503.88;4969067;28;20013;-80
2023/05/09 07:56:15;;;;;;;;;;;;;;;17.75;100.00;-18504.97;4968736;28;20061;-80
2023/05/09 07:58:40;;;;;;;;;;;;;;;17.85;100.00;-18507.56;4969987;28;19929;-79
2023/05/09 08:01:05;;;;;;;;;;;;;;;17.97;100.00;-18510.84;4970927;28;19922;-80
2023/05/09 08:03:31;;;;;;;;;;;;;;;17.93;100.00;-18509.75;4972446;28;19925;-78
2023/05/09 08:05:56;;;;;;;;;;;;;;;17.96;100.00;-18510.44;4968293;28;19957;-79
2023/05/09 08:08:21;;;;;;;;;;;;;;;17.93;100.00;-18509.63;4969289;28;19918;-79
2023/05/09 08:10:46;;;;;;;;;;;;;;;18.01;100.00;-18511.94;5035116;22;19980;-86
2023/05/09 08:13:12;;;;;;;;;;;;;;;18.13;100.00;-18514.94;5000207;28;20008;-86
2023/05/09 08:15:37;;;;;;;;;;;;;;;18.12;100.00;-18514.66;4979053;28;19953;-85
2023/05/09 08:18:02;;;;;;;;;;;;;;;18.25;100.00;-18518.22;4975379;28;20316;-85
2023/05/09 08:20:30;;;;;;;;;;;;;;;18.26;100.00;-18518.63;4975153;28;20070;-86
2023/05/09 08:22:55;;;;;;;;;;;;;;;18.26;100.00;-18518.63;4986136;28;19976;-86
2023/05/09 08:25:20;;;;;;;;;;;;;;;18.51;100.00;-18525.03;4988336;28;20281;-86
2023/05/09 08:27:45;;;;;;;;;;;;;;;18.40;100.00;-18522.31;4975965;28;19929;-86
2023/05/09 08:30:11;;;;;;;;;;;;;;;18.43;100.00;-18522.97;4979309;28;20404;-86
2023/05/09 08:32:36;;;;;;;;;;;;;;;18.64;100.00;-18528.72;4980743;28;20016;-86
2023/05/09 08:35:01;;;;;;;;;;;;;;;18.61;100.00;-18527.88;4977296;28;20420;-86
2023/05/09 08:37:27;;;;;;;;;;;;;;;18.65;100.00;-18528.97;4980489;28;19924;-86
2023/05/09 08:39:53;;;;;;;;;;;;;;;18.68;100.00;-18529.66;4981239;28;19918;-86
2023/05/09 08:42:21;;;;;;;;;;;;;;;18.64;100.00;-18528.72;4991917;28;20518;-86
2023/05/09 08:44:46;;;;;;;;;;;;;;;18.78;100.00;-18532.41;4975157;28;19922;-86
2023/05/09 08:47:12;;;;;;;;;;;;;;;18.87;100.00;-18534.72;4975222;28;19927;-87
2023/05/09 08:49:37;;;;;;;;;;;;;;;18.98;100.00;-18537.72;4977247;28;20282;-86
2023/05/09 08:52:03;;;;;;;;;;;;;;;18.93;100.00;-18536.34;4977034;28;19918;-85
2023/05/09 08:54:28;;;;;;;;;;;;;;;18.97;100.00;-18537.31;4980534;28;19941;-86
2023/05/09 08:56:54;;;;;;;;;;;;;;;19.02;100.00;-18538.81;4984602;28;19921;-86
2023/05/09 08:59:19;;;;;;;;;;;;;;;19.05;100.00;-18539.50;4979520;28;20344;-86
2023/05/09 09:01:45;;;;;;;;;;;;;;;19.20;100.00;-18543.44;4981963;28;20390;-86
2023/05/09 09:04:13;;;;;;;;;;;;;;;19.22;100.00;-18544.13;4982280;28;19918;-86
2023/05/09 09:06:38;;;;;;;;;;;;;;;19.21;100.00;-18543.72;4977007;28;19982;-87
2023/05/09 09:09:10;;;;;;;;;;;;;;;19.27;100.00;-18545.34;4979291;28;20379;-86
2023/05/09 09:11:37;;;;;;;;;;;;;;;19.15;100.00;-18542.22;4979749;28;19917;-85
2023/05/09 09:14:10;;;;;;;;;;;;;;;19.29;100.00;-18545.88;4973021;28;20099;-86
2023/05/09 09:16:36;;;;;;;;;;;;;;;19.28;100.00;-18545.75;4985818;28;19929;-86
2023/05/09 09:19:01;;;;;;;;;;;;;;;19.38;100.00;-18548.34;5004150;28;19929;-86
2023/05/09 09:21:30;;;;;;;;;;;;;;;19.38;100.00;-18548.34;4997424;28;19914;-86
2023/05/09 09:23:56;;;;;;;;;;;;;;;19.63;100.00;-18554.88;4984898;28;19921;-86
2023/05/09 09:26:21;;;;;;;;;;;;;;;19.76;100.00;-18558.41;4977175;28;19924;-85
2023/05/09 09:28:47;;;;;;;;;;;;;;;19.73;100.00;-18557.59;4976642;28;19961;-86
2023/05/09 09:31:19;;;;;;;;;;;;;;;19.79;100.00;-18559.38;4981599;28;19918;-86
2023/05/09 09:33:44;;;;;;;;;;;;;;;19.79;100.00;-18559.25;4988697;28;19918;-86
2023/05/09 09:36:10;;;;;;;;;;;;;;;19.81;100.00;-18559.78;4997865;28;19924;-86
2023/05/09 09:38:38;;;;;;;;;;;;;;;19.73;100.00;-18557.59;4986986;28;19957;-86
2023/05/09 09:41:04;;;;;;;;;;;;;;;19.70;100.00;-18556.94;4987561;28;19925;-86
2023/05/09 09:43:29;;;;;;;;;;;;;;;19.74;100.00;-18557.88;4986672;28;19917;-85
2023/05/09 09:45:56;;;;;;;;;;;;;;;19.78;100.00;-18558.97;4981200;28;19926;-87
2023/05/09 09:48:25;;;;;;;;;;;;;;;19.74;100.00;-18557.88;4973883;28;19918;-88
2023/05/09 09:50:52;;;;;;;;;;;;;;;19.69;100.00;-18556.53;4982968;28;20543;-87
2023/05/09 09:53:19;;;;;;;;;;;;;;;19.69;100.00;-18556.53;4977180;28;19924;-87
2023/05/09 09:55:52;;;;;;;;;;;;;;;19.74;100.00;-18558.00;4977426;28;19921;-87
2023/05/09 09:58:18;;;;;;;;;;;;;;;20.01;100.00;-18565.22;4978709;28;19926;-86
2023/05/09 10:00:44;;;;;;;;;;;;;;;20.14;100.00;-18568.63;4973280;28;19918;-87
2023/05/09 10:03:14;;;;;;;;;;;;;;;20.27;100.00;-18572.16;4975954;28;19918;-87
2023/05/09 10:05:40;;;;;;;;;;;;;;;20.31;100.00;-18573.13;4978587;28;19924;-86
2023/05/09 10:08:06;;;;;;;;;;;;;;;20.15;100.00;-18568.91;4976995;28;20999;-86
2023/05/09 10:10:35;;;;;;;;;;;;;;;20.32;100.00;-18573.41;4998716;28;19921;-87
2023/05/09 10:13:05;;;;;;;;;;;;;;;20.36;100.00;-18574.47;4977495;28;19922;-86
2023/05/09 10:15:31;;;;;;;;;;;;;;;20.47;100.00;-18577.34;4982207;28;20392;-87
2023/05/09 10:17:56;;;;;;;;;;;;;;;20.48;100.00;-18577.63;5001453;28;19933;-87
2023/05/09 10:20:22;;;;;;;;;;;;;;;20.57;100.00;-18580.06;4980481;28;19929;-86
2023/05/09 10:22:48;;;;;;;;;;;;;;;20.60;100.00;-18580.88;4981076;28;21175;-86
2023/05/09 10:25:16;;;;;;;;;;;;;;;20.66;100.00;-18582.38;4974566;28;19938;-87
2023/05/09 10:27:44;;;;;;;;;;;;;;;20.71;100.00;-18583.75;4983002;28;19957;-87
2023/05/09 10:30:17;;;;;;;;;;;;;;;20.75;100.00;-18584.69;5011684;28;19925;-85
2023/05/09 10:32:53;;;;;;;;;;;;;;;20.51;100.00;-18578.56;4976123;28;19918;-87
2023/05/09 10:35:19;;;;;;;;;;;;;;;20.53;100.00;-18578.97;4986004;28;19917;-86
2023/05/09 10:37:45;;;;;;;;;;;;;;;20.55;100.00;-18579.38;4979647;28;19929;-87
2023/05/09 10:40:14;;;;;;;;;;;;;;;20.49;100.00;-18577.88;4985161;28;20426;-87
2023/05/09 10:42:40;;;;;;;;;;;;;;;20.43;100.00;-18576.41;4977971;28;20408;-86
2023/05/09 10:45:07;;;;;;;;;;;;;;;20.61;100.00;-18581.03;4977012;28;19937;-86
2023/05/09 10:47:32;;;;;;;;;;;;;;;20.76;100.00;-18585.09;4973849;28;19929;-86
2023/05/09 10:49:58;;;;;;;;;;;;;;;20.80;100.00;-18586.19;4976271;28;19918;-86
2023/05/09 10:52:23;;;;;;;;;;;;;;;20.75;100.00;-18584.69;4978712;28;19921;-87
2023/05/09 10:55:02;;;;;;;;;;;;;;;20.80;100.00;-18586.19;4977723;28;19933;-86
2023/05/09 10:57:29;;;;;;;;;;;;;;;21.03;100.00;-18592.31;4979355;28;19933;-86
2023/05/09 10:59:55;;;;;;;;;;;;;;;21.02;100.00;-18591.91;4987385;28;19925;-86
2023/05/09 11:02:20;;;;;;;;;;;;;;;21.09;100.00;-18593.81;4996301;28;19929;-87
2023/05/09 11:04:46;;;;;;;;;;;;;;;21.37;100.00;-18601.41;4987567;28;19922;-86
2023/05/09 11:07:25;;;;;;;;;;;;;;;21.26;100.00;-18598.44;4985714;28;19979;-86
2023/05/09 11:09:51;;;;;;;;;;;;;;;21.46;100.00;-18603.72;4975011;28;19980;-87
2023/05/09 11:12:17;;;;;;;;;;;;;;;21.52;100.00;-18605.38;4975151;28;19921;-86
2023/05/09 11:14:47;;;;;;;;;;;;;;;21.63;100.00;-18608.22;4979663;28;19918;-87
2023/05/09 11:17:14;;;;;;;;;;;;;;;21.59;100.00;-18607.28;4973711;28;19969;-86
2023/05/09 11:19:45;;;;;;;;;;;;;;;21.70;100.00;-18610.00;4976023;28;19930;-86
2023/05/09 11:22:12;;;;;;;;;;;;;;;21.80;100.00;-18612.69;4978093;28;19926;-87
2023/05/09 11:24:38;;;;;;;;;;;;;;;22.00;100.00;-18618.00;4979827;28;19928;-87
2023/05/09 11:27:15;;;;;;;;;;;;;;;22.21;100.00;-18623.72;4980355;28;19921;-86
2023/05/09 11:29:51;;;;;;;;;;;;;;;22.29;100.00;-18625.88;4977275;28;19941;-87
2023/05/09 11:32:17;;;;;;;;;;;;;;;22.26;100.00;-18624.94;4981158;28;21128;-87
2023/05/09 11:34:44;;;;;;;;;;;;;;;22.15;100.00;-18622.06;4974253;28;20016;-86
2023/05/09 11:37:10;;;;;;;;;;;;;;;22.19;100.00;-18623.03;4981079;28;19922;-86
2023/05/09 11:39:54;;;;;;;;;;;;;;;22.29;100.00;-18625.88;4976689;28;19991;-86
2023/05/09 11:42:19;;;;;;;;;;;;;;;22.34;100.00;-18626.97;4995677;28;20053;-87
2023/05/09 11:44:47;;;;;;;;;;;;;;;22.43;100.00;-18629.41;4977268;28;20012;-86
2023/05/09 11:47:12;;;;;;;;;;;;;;;22.39;100.00;-18628.34;4980126;28;20439;-87
2023/05/09 11:49:41;;;;;;;;;;;;;;;22.28;100.00;-18625.63;4978197;28;19957;-87
2023/05/09 11:52:06;;;;;;;;;;;;;;;22.29;100.00;-18625.88;4980164;28;19922;-87
2023/05/09 11:54:31;;;;;;;;;;;;;;;22.25;100.00;-18624.66;4987190;28;20057;-86
2023/05/09 11:56:58;;;;;;;;;;;;;;;21.96;100.00;-18617.06;4985245;28;19970;-87
2023/05/09 11:59:24;;;;;;;;;;;;;;;22.09;100.00;-18620.44;4978873;28;20320;-87
2023/05/09 12:01:49;;;;;;;;;;;;;;;21.84;100.00;-18613.94;4979112;28;19918;-87
2023/05/09 12:04:14;;;;;;;;;;;;;;;21.95;100.00;-18616.66;4977074;28;19918;-87
2023/05/09 12:06:39;;;;;;;;;;;;;;;21.97;100.00;-18617.19;4983757;28;19922;-87
2023/05/09 12:09:05;;;;;;;;;;;;;;;21.94;100.00;-18616.38;4979440;28;19918;-88
2023/05/09 12:11:31;;;;;;;;;;;;;;;22.13;100.00;-18621.53;4979365;28;19918;-88
2023/05/09 12:13:56;;;;;;;;;;;;;;;22.11;100.00;-18621.00;4981405;28;19928;-86
2023/05/09 12:16:21;;;;;;;;;;;;;;;22.00;100.00;-18618.00;5000218;28;20001;-86
2023/05/09 12:18:51;;;;;;;;;;;;;;;22.08;100.00;-18620.31;4983759;28;20017;-87
2023/05/09 12:21:16;;;;;;;;;;;;;;;22.00;100.00;-18618.00;4988302;28;19948;-86
2023/05/09 12:23:42;;;;;;;;;;;;;;;22.09;100.00;-18620.59;4986949;28;20000;-86